Asheville Regional Airport
KAVL : now visible

Airfield :











YOU CAN JOIN US ON...

 
LOGIN :

Register | Disclaimer

   EN    FR    IT 

 









Legend :    VFR   Marginal VFR   IFR   Intensive IFR   Very Intensive IFR
Visi :
Ceiling :
>= 8 km
>= 3000ft
5 to 8 km
1000 to 3000 ft
1500m to 5 km
500 to 1000 ft
800 to 1500m
200 to 500 ft
< 800m
< 200 ft
Symbols :   Thunderstorms  Fog  Heavy snow  Heavy precipitations  Wind > 20 kt






- Airport Elevation : 2165 ft
- IATA code : AVL


KAVL - Asheville Regional

CURRENT METAR :
  • 260654Z AUTO 34009KT 10SM FEW023 00/M04 A3000 RMK AO2 SLP162 T00001039 $

EXPIRED METARs :
  • 260554Z AUTO 34008KT 10SM FEW022 00/M04 A3000 RMK AO2 SLP165 T00001039 10017 20000 50003 $
  • 260529Z AUTO 36004KT 10SM SCT023 00/M04 A3000 RMK AO2 T00001039 $
  • 260454Z AUTO VRB03KT 10SM OVC023 00/M04 A3000 RMK AO2 SLP166 T00001039 400610000 $

TAF KAVL
Valid from the 26 at 07:00 until the 27 at 06:00 UTC


260635Z 2607/2706 34011KT P6SM FEW022 SCT250
TEMPO 2607/2610 BKN022 OVC250
FM270100 33004KT P6SM BKN060



MET'MAP, your aeronautical weather chart ! - Copyright ORBIFLY December 2007 - Disclaimer

ORBIFLY MET'MAP TEAM :

Programming & Development : Alexandra Zaïnal
Concept & original design : Baudouin d'Aumeries
Assistance for programming : Marc-Olivier Méhu
Technical & hardware support : Manuel Goepfert

Contact : metmap@orbifly.com




SOURCES & CREDITS :

   NOAA       Earth
Advisory